Saxaren — SKHW — position and weather

sailwx.info

Track history (hours):
 
Tides and Currents Weather Stations Pressure Air Temp Water Temp Dewpoint Dewpoint Depression Visibility Wind Speed Wind Dir Waves Ship Positions

Saxaren

Last reported at 2016-Jul-24 14:34 UTC. Time now 2016-Jul-25 02:23 UTC.
Position N 59°20' E 018°05'.

Length 38 m; draft 1.8 m.

Type: Passenger vessel. MMSI: 265512110.

Date/timePositionNaut miles runAvg speedWind from/ knotsBaromVisibWave heightAir tempDewpointWater temp
2016-Jul-24 14:34N 59°20' E 018°05'1 0.2
2016-Jul-24 07:11N 59°19' E 018°07'1 1.9
2016-Jul-24 06:33N 59°20' E 018°05'0 0.0
2016-Jul-24 05:33N 59°20' E 018°05'0 0.0
2016-Jul-24 04:33N 59°20' E 018°05'0 0.0
2016-Jul-24 03:33N 59°20' E 018°05'0 0.0
2016-Jul-24 02:33N 59°20' E 018°05'0 0.0
2016-Jul-24 01:33N 59°20' E 018°05'0 0.0
2016-Jul-24 00:33N 59°20' E 018°05'0 0.0
2016-Jul-23 23:33N 59°20' E 018°05'0 0.0
2016-Jul-23 22:33N 59°20' E 018°05'0 0.0
2016-Jul-23 21:33N 59°20' E 018°05'0 0.0
2016-Jul-23 20:33N 59°20' E 018°05'0 0.0
2016-Jul-23 19:33N 59°20' E 018°05'1 0.1
2016-Jul-23 11:09N 59°19' E 018°07'1 2.1
2016-Jul-23 10:34N 59°20' E 018°05'0 0.0
2016-Jul-23 09:33N 59°20' E 018°04'1 0.0
2016-Jul-22 16:05N 59°19' E 018°05'1 1.3
2016-Jul-22 15:33N 59°20' E 018°05'0 0.0
2016-Jul-22 14:33N 59°20' E 018°05'0 0.0
2016-Jul-22 05:34N 59°20' E 018°05'0 0.0
2016-Jul-22 04:33N 59°20' E 018°05'0 0.0
2016-Jul-22 03:34N 59°20' E 018°05'0 0.0
2016-Jul-22 02:32N 59°20' E 018°05'0 0.0
2016-Jul-22 01:32N 59°20' E 018°05'0 0.0
2016-Jul-22 00:32N 59°20' E 018°05'0 0.0
2016-Jul-21 23:34N 59°20' E 018°05'0 0.0
2016-Jul-21 22:34N 59°20' E 018°05'0 0.0
2016-Jul-21 21:33N 59°20' E 018°05'0 0.0
2016-Jul-21 20:34N 59°20' E 018°05'0 0.0
2016-Jul-21 19:34N 59°20' E 018°05'0 0.0
2016-Jul-21 18:34N 59°20' E 018°05'0 0.0
2016-Jul-21 17:34N 59°20' E 018°05'0 0.1
2016-Jul-21 16:33N 59°20' E 018°05'4 0.3
2016-Jul-21 04:22N 59°20' E 018°12'0 0.0
2016-Jul-19 07:06N 59°20' E 018°12'4 1.4
2016-Jul-19 04:33N 59°20' E 018°04'0 0.0
2016-Jul-19 03:33N 59°20' E 018°05'0 0.0
2016-Jul-19 02:33N 59°20' E 018°04'0 0.0
2016-Jul-19 01:33N 59°20' E 018°04'0 0.0
2016-Jul-19 00:33N 59°20' E 018°05'0 0.0
2016-Jul-18 23:33N 59°20' E 018°05'0 0.0
2016-Jul-18 22:33N 59°20' E 018°05'0 0.0
2016-Jul-18 21:33N 59°20' E 018°04'0 0.0
2016-Jul-18 20:33N 59°20' E 018°05'0 0.0
2016-Jul-18 19:34N 59°20' E 018°05'0 0.0
2016-Jul-18 18:33N 59°20' E 018°04'0 0.0
2016-Jul-18 17:33N 59°20' E 018°04'4 0.4
2016-Jul-18 07:08N 59°20' E 018°12'4 6.7
2016-Jul-18 06:33N 59°20' E 018°05'4 0.2
2016-Jul-17 15:08N 59°20' E 018°11'3 5.9
2016-Jul-17 14:33N 59°19' E 018°05'4 0.6
2016-Jul-17 07:27N 59°20' E 018°12'4 4.5
2016-Jul-17 06:34N 59°20' E 018°05'0 0.0
2016-Jul-17 04:34N 59°20' E 018°05'0 0.0
2016-Jul-17 03:34N 59°20' E 018°05'0 0.0
2016-Jul-17 02:34N 59°20' E 018°05'0 0.0
2016-Jul-17 01:34N 59°20' E 018°05'0 0.0
2016-Jul-17 00:33N 59°20' E 018°05'0 0.0
2016-Jul-16 23:33N 59°20' E 018°05'0 0.0
2016-Jul-16 22:34N 59°20' E 018°05'0 0.0
2016-Jul-16 21:33N 59°20' E 018°05'0 0.0
2016-Jul-16 20:34N 59°20' E 018°05'0 0.0
2016-Jul-16 19:34N 59°20' E 018°05'4 0.4
2016-Jul-16 11:24N 59°20' E 018°12'4 4.3
2016-Jul-16 10:33N 59°20' E 018°05'0 0.0
2016-Jul-16 09:33N 59°20' E 018°04'4 0.2
2016-Jul-15 16:25N 59°20' E 018°12'4 4.5
2016-Jul-15 15:33N 59°20' E 018°05'0 0.0
2016-Jul-15 14:33N 59°20' E 018°05'0 0.0
2016-Jul-15 06:33N 59°20' E 018°05'0 0.1
2016-Jul-15 05:33N 59°20' E 018°05'0 0.0
2016-Jul-15 04:33N 59°20' E 018°05'0 0.0
2016-Jul-15 03:33N 59°20' E 018°05'0 0.0
2016-Jul-15 02:33N 59°20' E 018°05'0 0.0
2016-Jul-15 01:33N 59°20' E 018°05'0 0.0
2016-Jul-15 00:33N 59°20' E 018°05'0 0.0
2016-Jul-14 23:33N 59°20' E 018°05'0 0.0
2016-Jul-14 22:32N 59°20' E 018°05'0 0.0
2016-Jul-14 21:33N 59°20' E 018°05'0 0.0
2016-Jul-14 20:21N 59°20' E 018°05'0 0.0
2016-Jul-14 19:33N 59°20' E 018°05'3 3.2
2016-Jul-14 18:31N 59°20' E 018°11'  
Track history (hours):
 
Tides and Currents Weather Stations Pressure Air Temp Water Temp Dewpoint Dewpoint Depression Visibility Wind Speed Wind Dir Waves Ship Positions

Saxaren

Last reported at 2016-Jul-24 14:34 UTC. Time now 2016-Jul-25 02:23 UTC.
Position N 59°20' E 018°05'.

Length 38 m; draft 1.8 m.

Type: Passenger vessel. MMSI: 265512110.

Date/timePositionNaut miles runAvg speedWind from/ knotsBaromVisibWave heightAir tempDewpointWater temp
2016-Jul-24 14:34N 59°20' E 018°05'1 0.2
2016-Jul-24 07:11N 59°19' E 018°07'1 1.9
2016-Jul-24 06:33N 59°20' E 018°05'0 0.0
2016-Jul-24 05:33N 59°20' E 018°05'0 0.0
2016-Jul-24 04:33N 59°20' E 018°05'0 0.0
2016-Jul-24 03:33N 59°20' E 018°05'0 0.0
2016-Jul-24 02:33N 59°20' E 018°05'0 0.0
2016-Jul-24 01:33N 59°20' E 018°05'0 0.0
2016-Jul-24 00:33N 59°20' E 018°05'0 0.0
2016-Jul-23 23:33N 59°20' E 018°05'0 0.0
2016-Jul-23 22:33N 59°20' E 018°05'0 0.0
2016-Jul-23 21:33N 59°20' E 018°05'0 0.0
2016-Jul-23 20:33N 59°20' E 018°05'0 0.0
2016-Jul-23 19:33N 59°20' E 018°05'1 0.1
2016-Jul-23 11:09N 59°19' E 018°07'1 2.1
2016-Jul-23 10:34N 59°20' E 018°05'0 0.0
2016-Jul-23 09:33N 59°20' E 018°04'1 0.0
2016-Jul-22 16:05N 59°19' E 018°05'1 1.3
2016-Jul-22 15:33N 59°20' E 018°05'0 0.0
2016-Jul-22 14:33N 59°20' E 018°05'0 0.0
2016-Jul-22 05:34N 59°20' E 018°05'0 0.0
2016-Jul-22 04:33N 59°20' E 018°05'0 0.0
2016-Jul-22 03:34N 59°20' E 018°05'0 0.0
2016-Jul-22 02:32N 59°20' E 018°05'0 0.0
2016-Jul-22 01:32N 59°20' E 018°05'0 0.0
2016-Jul-22 00:32N 59°20' E 018°05'0 0.0
2016-Jul-21 23:34N 59°20' E 018°05'0 0.0
2016-Jul-21 22:34N 59°20' E 018°05'0 0.0
2016-Jul-21 21:33N 59°20' E 018°05'0 0.0
2016-Jul-21 20:34N 59°20' E 018°05'0 0.0
2016-Jul-21 19:34N 59°20' E 018°05'0 0.0
2016-Jul-21 18:34N 59°20' E 018°05'0 0.0
2016-Jul-21 17:34N 59°20' E 018°05'0 0.1
2016-Jul-21 16:33N 59°20' E 018°05'4 0.3
2016-Jul-21 04:22N 59°20' E 018°12'0 0.0
2016-Jul-19 07:06N 59°20' E 018°12'4 1.4
2016-Jul-19 04:33N 59°20' E 018°04'0 0.0
2016-Jul-19 03:33N 59°20' E 018°05'0 0.0
2016-Jul-19 02:33N 59°20' E 018°04'0 0.0
2016-Jul-19 01:33N 59°20' E 018°04'0 0.0
2016-Jul-19 00:33N 59°20' E 018°05'0 0.0
2016-Jul-18 23:33N 59°20' E 018°05'0 0.0
2016-Jul-18 22:33N 59°20' E 018°05'0 0.0
2016-Jul-18 21:33N 59°20' E 018°04'0 0.0
2016-Jul-18 20:33N 59°20' E 018°05'0 0.0
2016-Jul-18 19:34N 59°20' E 018°05'0 0.0
2016-Jul-18 18:33N 59°20' E 018°04'0 0.0
2016-Jul-18 17:33N 59°20' E 018°04'4 0.4
2016-Jul-18 07:08N 59°20' E 018°12'4 6.7
2016-Jul-18 06:33N 59°20' E 018°05'4 0.2
2016-Jul-17 15:08N 59°20' E 018°11'3 5.9
2016-Jul-17 14:33N 59°19' E 018°05'4 0.6
2016-Jul-17 07:27N 59°20' E 018°12'4 4.5
2016-Jul-17 06:34N 59°20' E 018°05'0 0.0
2016-Jul-17 04:34N 59°20' E 018°05'0 0.0
2016-Jul-17 03:34N 59°20' E 018°05'0 0.0
2016-Jul-17 02:34N 59°20' E 018°05'0 0.0
2016-Jul-17 01:34N 59°20' E 018°05'0 0.0
2016-Jul-17 00:33N 59°20' E 018°05'0 0.0
2016-Jul-16 23:33N 59°20' E 018°05'0 0.0
2016-Jul-16 22:34N 59°20' E 018°05'0 0.0
2016-Jul-16 21:33N 59°20' E 018°05'0 0.0
2016-Jul-16 20:34N 59°20' E 018°05'0 0.0
2016-Jul-16 19:34N 59°20' E 018°05'4 0.4
2016-Jul-16 11:24N 59°20' E 018°12'4 4.3
2016-Jul-16 10:33N 59°20' E 018°05'0 0.0
2016-Jul-16 09:33N 59°20' E 018°04'4 0.2
2016-Jul-15 16:25N 59°20' E 018°12'4 4.5
2016-Jul-15 15:33N 59°20' E 018°05'0 0.0
2016-Jul-15 14:33N 59°20' E 018°05'0 0.0
2016-Jul-15 06:33N 59°20' E 018°05'0 0.1
2016-Jul-15 05:33N 59°20' E 018°05'0 0.0
2016-Jul-15 04:33N 59°20' E 018°05'0 0.0
2016-Jul-15 03:33N 59°20' E 018°05'0 0.0
2016-Jul-15 02:33N 59°20' E 018°05'0 0.0
2016-Jul-15 01:33N 59°20' E 018°05'0 0.0
2016-Jul-15 00:33N 59°20' E 018°05'0 0.0
2016-Jul-14 23:33N 59°20' E 018°05'0 0.0
2016-Jul-14 22:32N 59°20' E 018°05'0 0.0
2016-Jul-14 21:33N 59°20' E 018°05'0 0.0
2016-Jul-14 20:21N 59°20' E 018°05'0 0.0
2016-Jul-14 19:33N 59°20' E 018°05'3 3.2
2016-Jul-14 18:31N 59°20' E 018°11'  

Dump ship's entire track history